Time;durP1;ratioP1;P1;durP2;ratioP2;P2;SDS_P1;SDS_P2;PMS_P1;PMS_P2;Temp;Humidity;BMP_temperature;BMP_pressure;BME280_temperature;BME280_humidity;BME280_pressure;Samples;Min_cycle;Max_cycle;Signal;HPM_P1;HPM_P2
2023/09/04 00:01:37;;;;;;;7.40;2.50;;;;;;;15.01;67.88;101053.53;10398074;28;20056;-61
2023/09/04 00:06:39;;;;;;;11.10;2.35;;;;;;;14.89;67.77;101057.78;10398994;28;20049;-61
2023/09/04 00:11:41;;;;;;;5.22;1.65;;;;;;;14.74;67.46;101055.19;10392434;28;20033;-61
2023/09/04 00:16:43;;;;;;;3.20;1.95;;;;;;;14.68;68.13;101064.28;10393827;28;20498;-62
2023/09/04 00:21:45;;;;;;;11.82;2.45;;;;;;;14.69;67.83;101060.75;10391255;28;20288;-61
2023/09/04 00:26:47;;;;;;;72.45;4.57;;;;;;;14.44;67.71;101063.06;10391660;28;20295;-61
2023/09/04 00:31:49;;;;;;;3.80;2.17;;;;;;;14.47;68.37;101062.91;10392963;28;20053;-61
2023/09/04 00:36:51;;;;;;;49.35;3.45;;;;;;;14.21;68.10;101064.38;10394901;28;20167;-62
2023/09/04 00:41:53;;;;;;;6.90;2.20;;;;;;;14.04;68.59;101068.91;10392388;28;20140;-62
2023/09/04 00:46:56;;;;;;;4.57;2.22;;;;;;;14.20;68.51;101064.47;10389937;28;20041;-61
2023/09/04 00:52:01;;;;;;;3.72;1.90;;;;;;;14.22;68.65;101063.47;10389342;28;20049;-62
2023/09/04 00:57:06;;;;;;;6.13;2.05;;;;;;;14.29;68.52;101059.53;10391613;28;20037;-62
2023/09/04 01:02:11;;;;;;;31.60;2.78;;;;;;;14.34;68.28;101062.75;10390671;28;20037;-62
2023/09/04 01:07:13;;;;;;;15.68;2.10;;;;;;;13.85;68.04;101053.28;10390637;28;20056;-62
2023/09/04 01:12:22;;;;;;;3.88;1.70;;;;;;;13.59;69.16;101048.63;10384587;28;20511;-62
2023/09/04 01:17:25;;;;;;;4.15;2.00;;;;;;;13.62;69.19;101051.94;10389013;28;20054;-62
2023/09/04 01:22:29;;;;;;;5.50;2.00;;;;;;;13.81;68.83;101049.13;10371196;28;20057;-62
2023/09/04 01:27:39;;;;;;;3.30;1.90;;;;;;;13.90;68.56;101038.13;10396257;28;20335;-62
2023/09/04 01:32:45;;;;;;;2.33;1.55;;;;;;;13.89;68.64;101030.31;10394722;28;20871;-62
2023/09/04 01:37:47;;;;;;;3.38;1.70;;;;;;;13.91;68.33;101026.66;10389585;28;20045;-62
2023/09/04 01:42:49;;;;;;;3.28;1.70;;;;;;;13.55;68.51;101034.81;10390863;28;21089;-62
2023/09/04 01:47:51;;;;;;;2.88;1.77;;;;;;;13.60;68.95;101026.66;10407895;28;20049;-61
2023/09/04 01:52:53;;;;;;;3.13;1.85;;;;;;;13.71;68.49;101032.19;10425261;28;20041;-61
2023/09/04 01:57:55;;;;;;;3.25;1.90;;;;;;;13.58;68.30;101023.25;10386938;28;20045;-61
2023/09/04 02:02:57;;;;;;;3.33;1.88;;;;;;;13.46;68.78;101022.16;10389877;28;20446;-61
2023/09/04 02:07:59;;;;;;;4.78;1.70;;;;;;;13.52;68.64;101026.22;10400516;28;20468;-61
2023/09/04 02:13:02;;;;;;;2.67;1.63;;;;;;;13.55;68.44;101032.19;10398944;28;20156;-62
2023/09/04 02:18:04;;;;;;;7.20;2.38;;;;;;;13.43;68.19;101032.00;10399329;28;20435;-61
2023/09/04 02:23:06;;;;;;;2.78;1.80;;;;;;;13.46;68.49;101030.03;10395655;28;20401;-61
2023/09/04 02:28:08;;;;;;;8.63;1.67;;;;;;;13.53;68.24;101027.94;10399044;28;20300;-61
2023/09/04 02:33:10;;;;;;;35.35;2.97;;;;;;;13.26;68.08;101032.00;10407218;28;20049;-61
2023/09/04 02:38:13;;;;;;;50.03;1.95;;;;;;;13.08;68.49;101028.59;10419316;28;20041;-61
2023/09/04 02:43:16;;;;;;;1.70;1.13;;;;;;;12.92;68.78;101028.53;10393482;28;20052;-61
2023/09/04 02:48:18;;;;;;;1.85;1.30;;;;;;;13.04;68.95;101019.19;10410309;28;20508;-61
2023/09/04 02:53:20;;;;;;;52.60;2.65;;;;;;;13.15;68.50;101026.50;10424434;28;20049;-61
2023/09/04 02:58:22;;;;;;;10.93;1.70;;;;;;;13.11;68.66;101023.16;10395734;28;20136;-61
2023/09/04 03:03:24;;;;;;;92.55;4.07;;;;;;;12.91;68.56;101021.59;10393482;28;20486;-61
2023/09/04 03:08:26;;;;;;;40.42;2.55;;;;;;;12.74;69.16;101024.22;10390640;28;20141;-62
2023/09/04 03:13:29;;;;;;;25.02;2.25;;;;;;;12.83;69.01;101009.78;10416456;28;20060;-61
2023/09/04 03:18:34;;;;;;;8.35;1.20;;;;;;;12.87;69.25;101021.81;10388523;28;20045;-62
2023/09/04 03:23:36;;;;;;;12.85;1.60;;;;;;;12.81;69.05;101015.13;10403540;28;20052;-61
2023/09/04 03:28:38;;;;;;;4.20;1.10;;;;;;;12.76;68.92;101008.41;10386304;28;20045;-63
2023/09/04 03:33:41;;;;;;;8.18;1.70;;;;;;;12.70;68.71;101012.19;10387054;28;20053;-61
2023/09/04 03:38:44;;;;;;;10.25;1.88;;;;;;;12.50;68.81;101009.72;10387701;28;20413;-62
2023/09/04 03:43:47;;;;;;;2.38;1.40;;;;;;;12.60;69.11;101008.34;10390614;28;20061;-62
2023/09/04 03:48:49;;;;;;;4.07;1.17;;;;;;;12.67;68.88;101011.50;10392143;28;20063;-62
2023/09/04 03:53:51;;;;;;;3.28;1.25;;;;;;;12.68;68.74;101011.41;10409517;28;20605;-62
2023/09/04 03:58:52;;;;;;;17.80;1.45;;;;;;;12.65;68.75;101005.47;10405954;28;20041;-61
2023/09/04 04:03:54;;;;;;;19.80;1.77;;;;;;;12.75;68.77;101009.34;10424144;28;20232;-61
2023/09/04 04:08:57;;;;;;;2.55;1.40;;;;;;;12.79;68.82;101006.47;10408557;28;20054;-62
2023/09/04 04:13:59;;;;;;;30.77;2.92;;;;;;;12.66;68.61;101002.78;10392191;28;20060;-62
2023/09/04 04:19:00;;;;;;;20.80;1.90;;;;;;;12.58;69.38;101011.97;10393833;28;20489;-61
2023/09/04 04:24:03;;;;;;;29.95;2.10;;;;;;;12.65;69.24;101016.84;10398075;28;20096;-62
2023/09/04 04:29:05;;;;;;;25.83;1.75;;;;;;;12.43;69.08;101024.09;10398825;28;20048;-61
2023/09/04 04:34:07;;;;;;;15.77;1.60;;;;;;;12.33;69.12;101030.72;10397074;28;20053;-61
2023/09/04 04:39:09;;;;;;;51.97;3.67;;;;;;;12.26;69.08;101026.66;10394032;28;20046;-61
2023/09/04 04:44:11;;;;;;;34.55;1.60;;;;;;;12.19;69.38;101017.41;10391719;28;20952;-62
2023/09/04 04:49:20;;;;;;;3.45;1.00;;;;;;;12.15;69.31;101018.47;10398977;28;20045;-61
2023/09/04 04:54:22;;;;;;;6.15;1.45;;;;;;;11.96;69.17;101029.03;10404575;28;20053;-62
2023/09/04 04:59:25;;;;;;;1.42;1.00;;;;;;;12.02;69.42;101033.13;10391118;28;20045;-61
2023/09/04 05:04:26;;;;;;;1.45;1.17;;;;;;;12.15;69.01;101032.44;10394041;28;20449;-61
2023/09/04 05:09:29;;;;;;;3.00;1.20;;;;;;;12.13;68.73;101036.03;10406788;28;20045;-62
2023/09/04 05:14:33;;;;;;;2.50;1.00;;;;;;;12.22;68.67;101053.13;10393255;28;20061;-61
2023/09/04 05:19:35;;;;;;;1.50;1.10;;;;;;;12.19;68.70;101045.41;10390765;28;20457;-62
2023/09/04 05:24:37;;;;;;;2.15;1.30;;;;;;;12.41;68.95;101048.72;10387833;28;20076;-62
2023/09/04 05:29:40;;;;;;;2.67;1.30;;;;;;;12.64;68.68;101051.88;10412751;28;20052;-62
2023/09/04 05:34:42;;;;;;;2.25;1.30;;;;;;;12.89;68.27;101052.31;10389953;28;20041;-62
2023/09/04 05:39:44;;;;;;;2.75;1.50;;;;;;;13.00;68.25;101053.53;10392118;28;20512;-61
2023/09/04 05:44:46;;;;;;;6.85;2.00;;;;;;;13.07;67.82;101049.69;10398329;28;20049;-61
2023/09/04 05:49:48;;;;;;;6.07;2.10;;;;;;;13.16;67.86;101046.56;10389192;28;20257;-61
2023/09/04 05:54:50;;;;;;;5.45;1.80;;;;;;;13.35;67.61;101042.88;10390962;28;20048;-61
2023/09/04 05:59:52;;;;;;;2.42;1.40;;;;;;;13.36;67.69;101030.59;10387695;28;20041;-62
2023/09/04 06:04:54;;;;;;;9.68;2.08;;;;;;;13.43;67.67;101032.00;10389993;28;20053;-61
2023/09/04 06:09:56;;;;;;;2.20;1.45;;;;;;;13.45;67.59;101017.84;10391661;28;20679;-61
2023/09/04 06:14:57;;;;;;;5.72;1.67;;;;;;;13.58;67.74;101020.63;10388332;28;20140;-62
2023/09/04 06:19:59;;;;;;;2.97;1.80;;;;;;;13.89;67.35;101011.88;10402677;28;20045;-62
2023/09/04 06:25:01;;;;;;;3.40;1.98;;;;;;;14.08;67.36;101010.78;10390004;28;20221;-62
2023/09/04 06:30:07;;;;;;;6.00;1.75;;;;;;;14.18;66.91;101022.47;10387254;28;20568;-61
2023/09/04 06:35:09;;;;;;;3.85;2.05;;;;;;;14.29;67.12;101033.22;10389704;28;20122;-62
2023/09/04 06:40:13;;;;;;;6.35;2.08;;;;;;;14.31;66.92;101017.31;10387260;28;20077;-63
2023/09/04 06:45:15;;;;;;;4.10;1.98;;;;;;;14.12;67.21;101014.06;10388150;28;20059;-62
2023/09/04 06:50:17;;;;;;;5.75;2.03;;;;;;;14.03;67.37;101010.19;10401823;28;20044;-62
2023/09/04 06:55:19;;;;;;;3.67;1.73;;;;;;;14.05;67.56;101008.31;10401351;28;20735;-61
2023/09/04 07:00:21;;;;;;;3.20;1.80;;;;;;;14.26;67.07;101009.72;10387636;28;20054;-62
2023/09/04 07:05:24;;;;;;;5.45;2.38;;;;;;;14.30;66.90;101003.34;10394769;28;20162;-61
2023/09/04 07:10:26;;;;;;;4.05;2.08;;;;;;;14.53;66.75;101008.13;10385113;28;20045;-62
2023/09/04 07:15:28;;;;;;;4.90;2.15;;;;;;;14.64;66.90;101001.38;10386072;28;20050;-61
2023/09/04 07:20:30;;;;;;;3.80;1.90;;;;;;;14.70;66.76;101003.63;10392118;28;20225;-62
2023/09/04 07:25:33;;;;;;;3.95;2.00;;;;;;;14.84;66.36;101001.06;10392037;28;20064;-61
2023/09/04 07:30:35;;;;;;;5.43;2.40;;;;;;;15.07;66.07;100989.94;10391556;28;20057;-62
2023/09/04 07:35:37;;;;;;;5.20;2.45;;;;;;;15.32;65.95;100996.25;10398956;28;20056;-62
2023/09/04 07:40:39;;;;;;;4.47;2.22;;;;;;;15.94;65.08;100986.97;10395845;28;20508;-62
2023/09/04 07:45:42;;;;;;;4.30;2.17;;;;;;;16.77;63.27;100981.34;10390782;28;20224;-62
2023/09/04 07:50:44;;;;;;;7.80;2.50;;;;;;;17.16;62.35;100983.00;10393944;28;20073;-62
2023/09/04 07:55:46;;;;;;;4.53;2.00;;;;;;;17.75;60.49;100969.03;10397112;28;20056;-62
2023/09/04 08:00:51;;;;;;;4.50;2.05;;;;;;;18.46;59.22;100973.47;10390968;28;20122;-63
2023/09/04 08:05:55;;;;;;;3.47;1.90;;;;;;;18.87;58.69;100979.06;10400415;28;20076;-64
2023/09/04 08:10:56;;;;;;;3.40;1.92;;;;;;;19.37;57.68;100983.94;10393630;28;20401;-63
2023/09/04 08:15:58;;;;;;;5.13;1.90;;;;;;;19.76;56.46;100979.88;10397210;28;20057;-62
2023/09/04 08:21:01;;;;;;;2.97;1.90;;;;;;;20.05;55.96;100964.25;10386680;28;20393;-63
2023/09/04 08:26:06;;;;;;;3.08;1.90;;;;;;;20.47;55.22;100963.28;10389968;28;20055;-62
2023/09/04 08:31:08;;;;;;;8.23;2.22;;;;;;;20.81;53.82;100953.31;10388351;28;20037;-62
2023/09/04 08:36:10;;;;;;;3.50;1.65;;;;;;;20.67;53.65;100959.81;10404804;28;20075;-62
2023/09/04 08:41:16;;;;;;;4.30;1.90;;;;;;;21.18;52.54;100950.94;10391948;28;20550;-62
2023/09/04 08:46:18;;;;;;;3.40;1.80;;;;;;;21.50;52.57;100948.97;10389353;28;20045;-62
2023/09/04 08:51:21;;;;;;;2.35;1.45;;;;;;;21.82;51.38;100947.75;10390102;28;20049;-62
2023/09/04 08:56:24;;;;;;;3.20;1.52;;;;;;;22.09;50.53;100939.09;10388716;28;20052;-62
2023/09/04 09:01:31;;;;;;;3.25;1.73;;;;;;;22.16;50.06;100945.56;10388778;28;20513;-63
2023/09/04 09:06:34;;;;;;;3.08;1.73;;;;;;;22.36;50.16;100951.69;10390540;28;20505;-63
2023/09/04 09:11:38;;;;;;;3.53;1.50;;;;;;;22.49;49.67;100950.44;10386390;28;20494;-62
2023/09/04 09:16:40;;;;;;;5.47;1.80;;;;;;;23.16;48.77;100941.38;10404698;28;20037;-62
2023/09/04 09:21:43;;;;;;;2.55;1.60;;;;;;;23.25;47.43;100940.47;10388809;28;20056;-63
2023/09/04 09:26:48;;;;;;;2.45;1.45;;;;;;;23.38;47.24;100943.66;10388122;28;20045;-63
2023/09/04 09:31:53;;;;;;;2.17;1.50;;;;;;;23.14;46.44;100932.69;10382475;28;20048;-62
2023/09/04 09:36:57;;;;;;;2.85;1.60;;;;;;;23.56;46.68;100931.19;10389983;28;20045;-62
2023/09/04 09:42:01;;;;;;;3.22;1.77;;;;;;;23.47;46.79;100929.44;10400607;28;20397;-62
2023/09/04 09:47:07;;;;;;;2.65;1.77;;;;;;;23.49;46.15;100927.47;10386964;28;20082;-63
2023/09/04 09:52:10;;;;;;;2.70;1.52;;;;;;;23.90;45.73;100924.19;10385881;28;20068;-63
2023/09/04 09:57:15;;;;;;;3.15;1.50;;;;;;;23.79;45.23;100905.75;10387808;28;20036;-62
2023/09/04 10:02:22;;;;;;;4.45;1.48;;;;;;;23.70;45.10;100913.81;10388031;28;20696;-63
2023/09/04 10:07:27;;;;;;;2.67;1.50;;;;;;;23.98;45.17;100912.75;10384556;28;20720;-63
2023/09/04 10:12:37;;;;;;;2.35;1.50;;;;;;;24.01;44.68;100896.41;10391457;28;20498;-63
2023/09/04 10:17:58;;;;;;;2.90;1.70;;;;;;;24.02;44.57;100882.06;10394567;28;20153;-63
2023/09/04 10:23:08;;;;;;;2.92;1.48;;;;;;;24.06;45.02;100868.19;10389191;28;20045;-63
2023/09/04 10:28:33;;;;;;;3.80;1.58;;;;;;;23.93;42.67;100870.47;10390304;28;20592;-63
2023/09/04 10:33:45;;;;;;;2.88;1.52;;;;;;;23.91;44.83;100864.44;10384474;28;20041;-63
2023/09/04 10:38:47;;;;;;;2.33;1.38;;;;;;;24.02;44.68;100858.00;10415564;28;20049;-64
2023/09/04 10:43:50;;;;;;;2.22;1.15;;;;;;;24.24;42.67;100855.69;10402070;28;20720;-64
2023/09/04 10:48:53;;;;;;;4.82;1.48;;;;;;;24.24;43.21;100839.66;10391166;28;20060;-64
2023/09/04 10:53:57;;;;;;;2.58;1.35;;;;;;;23.84;42.18;100844.66;10383068;28;20056;-64
2023/09/04 10:59:01;;;;;;;2.30;1.40;;;;;;;23.35;42.02;100839.84;10389758;28;20042;-64
2023/09/04 11:04:05;;;;;;;2.25;1.38;;;;;;;23.44;42.60;100825.59;10380590;28;20049;-64
2023/09/04 11:09:11;;;;;;;2.85;1.58;;;;;;;23.41;40.67;100823.25;10386807;28;20710;-64
2023/09/04 11:14:14;;;;;;;2.60;1.30;;;;;;;23.63;42.51;100812.09;10395919;28;20049;-65
2023/09/04 11:19:18;;;;;;;2.08;1.20;;;;;;;23.99;42.85;100802.19;10385179;28;20080;-63
2023/09/04 11:24:22;;;;;;;2.53;1.00;;;;;;;24.21;41.61;100799.00;10384084;28;20800;-64
2023/09/04 11:29:26;;;;;;;2.15;1.30;;;;;;;24.02;39.79;100802.69;10381718;28;20129;-65
2023/09/04 11:34:28;;;;;;;1.88;1.20;;;;;;;24.05;39.93;100797.06;10385077;28;20548;-64
2023/09/04 11:39:31;;;;;;;1.83;1.10;;;;;;;24.24;39.85;100788.88;10384168;28;20053;-64
2023/09/04 11:44:33;;;;;;;1.55;1.10;;;;;;;24.13;39.11;100797.13;10415807;28;20486;-63
2023/09/04 11:49:35;;;;;;;2.03;1.20;;;;;;;24.12;39.08;100778.59;10379188;28;20049;-64
2023/09/04 11:54:37;;;;;;;2.30;1.15;;;;;;;24.14;38.18;100784.63;10382611;28;20398;-64
2023/09/04 11:59:41;;;;;;;1.20;0.88;;;;;;;24.32;39.00;100768.50;10381718;28;20041;-64
2023/09/04 12:04:45;;;;;;;2.67;1.20;;;;;;;24.29;37.79;100773.16;10389019;28;20310;-64
2023/09/04 12:09:47;;;;;;;1.65;1.10;;;;;;;24.31;38.42;100764.97;10389443;28;20049;-64
2023/09/04 12:14:49;;;;;;;3.22;1.30;;;;;;;24.64;38.31;100764.13;10391152;28;20068;-64
2023/09/04 12:19:52;;;;;;;1.55;1.00;;;;;;;24.68;37.22;100759.28;10390755;28;20080;-64
2023/09/04 12:25:00;;;;;;;1.88;1.10;;;;;;;24.82;37.57;100748.00;10388964;28;20052;-65
2023/09/04 12:30:04;;;;;;;1.95;1.15;;;;;;;24.68;37.81;100740.56;10386947;28;20211;-64
2023/09/04 12:35:07;;;;;;;2.47;0.90;;;;;;;24.92;37.82;100743.31;10388045;28;20041;-64
2023/09/04 12:40:10;;;;;;;2.50;1.10;;;;;;;25.15;37.19;100741.69;10401091;28;20048;-64
2023/09/04 12:45:12;;;;;;;2.35;1.17;;;;;;;25.19;35.54;100743.03;10392346;28;20387;-64
2023/09/04 12:50:14;;;;;;;2.67;1.02;;;;;;;24.93;35.79;100734.31;10388861;28;20064;-64
2023/09/04 12:55:17;;;;;;;2.15;1.27;;;;;;;25.13;35.60;100735.69;10394052;28;20068;-64
2023/09/04 13:00:19;;;;;;;1.40;0.93;;;;;;;25.31;35.26;100739.03;10393991;28;20493;-64
2023/09/04 13:05:24;;;;;;;1.50;1.00;;;;;;;25.31;35.03;100722.97;10386763;28;20233;-64
2023/09/04 13:10:26;;;;;;;3.25;1.30;;;;;;;25.48;35.28;100723.84;10385857;28;20054;-65
2023/09/04 13:15:29;;;;;;;2.55;1.15;;;;;;;25.69;35.83;100714.25;10391428;28;20234;-65
2023/09/04 13:20:31;;;;;;;2.53;1.10;;;;;;;25.69;34.54;100711.59;10388630;28;20156;-64
2023/09/04 13:25:33;;;;;;;1.63;1.00;;;;;;;25.54;34.12;100697.22;10388933;28;20054;-66
2023/09/04 13:30:35;;;;;;;2.20;1.10;;;;;;;25.65;34.77;100694.19;10386545;28;20571;-64
2023/09/04 13:35:37;;;;;;;1.83;1.20;;;;;;;25.73;33.67;100691.47;10390089;28;20037;-64
2023/09/04 13:40:40;;;;;;;1.90;1.15;;;;;;;25.88;34.10;100688.94;10395205;28;20044;-64
2023/09/04 13:45:42;;;;;;;3.08;1.10;;;;;;;25.84;32.96;100677.72;10387045;28;20111;-63
2023/09/04 13:50:47;;;;;;;3.78;1.20;;;;;;;25.85;33.14;100671.34;10386601;28;20048;-63
2023/09/04 13:55:50;;;;;;;1.17;0.77;;;;;;;25.98;33.17;100662.81;10387682;28;20375;-65
2023/09/04 14:00:52;;;;;;;2.05;1.10;;;;;;;25.90;32.24;100660.97;10390784;28;20045;-63
2023/09/04 14:05:54;;;;;;;3.55;1.45;;;;;;;26.09;33.45;100659.75;10387338;28;20332;-64
2023/09/04 14:10:56;;;;;;;1.50;0.88;;;;;;;26.08;32.40;100651.91;10387783;28;20053;-63
2023/09/04 14:15:58;;;;;;;1.63;1.02;;;;;;;25.98;32.64;100645.91;10385854;28;20054;-64
2023/09/04 14:21:00;;;;;;;1.60;1.05;;;;;;;26.14;32.63;100652.00;10390337;28;20444;-63
2023/09/04 14:26:05;;;;;;;2.83;1.20;;;;;;;26.12;32.14;100640.63;10390872;28;20041;-64
2023/09/04 14:31:14;;;;;;;1.70;1.20;;;;;;;26.23;30.85;100640.25;10384073;28;20761;-63
2023/09/04 14:36:16;;;;;;;5.78;1.13;;;;;;;26.04;31.36;100642.53;10386933;28;20226;-64
2023/09/04 14:41:22;;;;;;;2.13;1.23;;;;;;;25.98;31.00;100635.19;10383954;28;20056;-64
2023/09/04 14:46:24;;;;;;;2.13;1.20;;;;;;;26.02;31.33;100636.50;10383400;28;20060;-64
2023/09/04 14:51:28;;;;;;;1.67;1.00;;;;;;;26.08;31.15;100635.81;10417563;28;20663;-63
2023/09/04 14:56:30;;;;;;;2.25;1.20;;;;;;;26.17;31.42;100630.22;10398378;28;20514;-63
2023/09/04 15:01:32;;;;;;;4.28;1.27;;;;;;;26.27;31.41;100619.28;10382484;28;20524;-64
2023/09/04 15:06:35;;;;;;;2.28;1.40;;;;;;;26.27;31.26;100613.91;10400215;28;20191;-64
2023/09/04 15:11:38;;;;;;;2.58;1.10;;;;;;;26.18;31.44;100609.63;10382269;28;20037;-64
2023/09/04 15:16:40;;;;;;;1.30;1.05;;;;;;;25.99;30.97;100610.88;10390628;28;20056;-63
2023/09/04 15:21:43;;;;;;;1.63;1.08;;;;;;;26.09;30.76;100602.59;10386511;28;20221;-63
2023/09/04 15:26:45;;;;;;;2.53;1.13;;;;;;;26.09;31.58;100591.88;10387829;28;20497;-64
2023/09/04 15:31:48;;;;;;;2.58;1.13;;;;;;;26.01;31.47;100583.88;10385885;28;20037;-64
2023/09/04 15:36:50;;;;;;;1.83;1.40;;;;;;;26.01;30.95;100586.56;10389689;28;20056;-65
2023/09/04 15:41:52;;;;;;;2.53;1.13;;;;;;;26.15;31.29;100570.56;10395253;28;20171;-64
2023/09/04 15:46:54;;;;;;;2.25;1.27;;;;;;;26.15;31.32;100580.47;10398661;28;20081;-65
2023/09/04 15:51:57;;;;;;;1.95;1.10;;;;;;;25.94;31.28;100562.28;10394607;28;20544;-63
2023/09/04 15:57:05;;;;;;;2.50;1.10;;;;;;;26.05;31.51;100572.66;10431224;28;20498;-63
2023/09/04 16:02:07;;;;;;;2.40;1.20;;;;;;;26.00;31.94;100576.88;10398838;28;20128;-63
2023/09/04 16:07:09;;;;;;;7.22;1.25;;;;;;;25.88;32.10;100587.09;10395151;28;20084;-63
2023/09/04 16:12:11;;;;;;;1.77;1.10;;;;;;;25.67;32.13;100579.63;10394428;28;20057;-63
2023/09/04 16:17:13;;;;;;;1.88;1.10;;;;;;;25.56;32.42;100588.06;10397632;28;20038;-63
2023/09/04 16:22:15;;;;;;;3.05;1.55;;;;;;;25.54;32.28;100581.19;10395736;28;20045;-63
2023/09/04 16:27:17;;;;;;;1.90;1.20;;;;;;;25.39;32.62;100578.38;10392846;28;20364;-63
2023/09/04 16:32:19;;;;;;;1.55;1.02;;;;;;;25.46;32.56;100571.34;10394902;28;20045;-63
2023/09/04 16:37:21;;;;;;;2.75;1.30;;;;;;;25.45;32.80;100568.81;10394469;28;20049;-63
2023/09/04 16:42:23;;;;;;;2.75;1.23;;;;;;;25.75;33.04;100571.56;10393871;28;20385;-63
2023/09/04 16:47:25;;;;;;;1.58;1.05;;;;;;;26.02;32.88;100561.44;10392331;28;20501;-63
2023/09/04 16:52:27;;;;;;;2.92;1.25;;;;;;;26.29;32.63;100556.41;10391837;28;20098;-63
2023/09/04 16:57:29;;;;;;;3.90;1.20;;;;;;;26.11;33.24;100547.81;10390981;28;20088;-63
2023/09/04 17:02:31;;;;;;;2.08;1.20;;;;;;;25.78;33.43;100549.78;10396586;28;20053;-63
2023/09/04 17:07:33;;;;;;;2.72;1.30;;;;;;;25.39;34.21;100543.56;10391874;28;20080;-63
2023/09/04 17:12:36;;;;;;;2.30;1.08;;;;;;;25.00;33.93;100546.13;10390672;28;20061;-63
2023/09/04 17:17:38;;;;;;;3.38;1.35;;;;;;;24.69;34.17;100545.16;10395340;28;20049;-64
2023/09/04 17:22:40;;;;;;;1.77;1.10;;;;;;;24.54;34.66;100549.47;10391866;28;20041;-63
2023/09/04 17:27:42;;;;;;;1.92;1.15;;;;;;;24.32;34.71;100538.59;10390628;28;20057;-64
2023/09/04 17:32:44;;;;;;;2.95;1.40;;;;;;;24.09;35.28;100543.72;10389550;28;20072;-64
2023/09/04 17:37:46;;;;;;;2.22;1.02;;;;;;;23.96;35.48;100540.66;10391630;28;20493;-62
2023/09/04 17:42:49;;;;;;;1.70;0.95;;;;;;;23.83;36.43;100540.28;10389561;28;20056;-62
2023/09/04 17:47:50;;;;;;;4.45;1.40;;;;;;;23.60;37.20;100550.69;10389503;28;20150;-61
2023/09/04 17:52:55;;;;;;;1.77;1.20;;;;;;;23.33;37.03;100557.03;10389279;28;20650;-63
2023/09/04 17:57:57;;;;;;;3.15;1.30;;;;;;;23.08;38.04;100559.72;10391333;28;20072;-63
2023/09/04 18:02:59;;;;;;;3.45;1.40;;;;;;;22.82;38.86;100553.53;10388647;28;20490;-63
2023/09/04 18:08:01;;;;;;;2.88;1.40;;;;;;;22.59;39.31;100561.97;10389139;28;20785;-64
2023/09/04 18:13:03;;;;;;;3.08;1.30;;;;;;;22.38;40.17;100564.09;10390012;28;20060;-63
2023/09/04 18:18:05;;;;;;;5.30;1.60;;;;;;;22.17;40.75;100568.06;10389504;28;20045;-64
2023/09/04 18:23:07;;;;;;;4.07;1.90;;;;;;;22.01;41.18;100567.81;10389591;28;20056;-63
2023/09/04 18:28:09;;;;;;;2.80;1.60;;;;;;;21.78;41.71;100567.41;10391515;28;20048;-64
2023/09/04 18:33:36;;;;;;;2.20;1.27;;;;;;;21.62;42.50;100572.53;10413702;28;20044;-63
2023/09/04 18:38:44;;;;;;;3.17;1.58;;;;;;;21.47;42.51;100566.84;10386885;28;20095;-64
2023/09/04 18:43:47;;;;;;;3.20;1.27;;;;;;;21.31;43.00;100571.91;10388478;28;20051;-64
2023/09/04 18:48:50;;;;;;;3.75;1.40;;;;;;;21.17;43.03;100582.97;10385981;28;20056;-64
2023/09/04 18:53:53;;;;;;;2.95;1.58;;;;;;;20.99;44.20;100584.69;10389981;28;20061;-64
2023/09/04 18:58:56;;;;;;;2.63;1.30;;;;;;;20.80;44.84;100580.25;10388933;28;20041;-61
2023/09/04 19:03:58;;;;;;;2.30;1.38;;;;;;;20.67;45.43;100587.66;10386510;28;20048;-61
2023/09/04 19:09:00;;;;;;;3.10;1.40;;;;;;;20.49;46.21;100588.47;10386706;28;20049;-61
2023/09/04 19:14:03;;;;;;;4.30;1.33;;;;;;;20.35;46.33;100589.72;10394088;28;20047;-61
2023/09/04 19:19:06;;;;;;;2.88;1.40;;;;;;;20.17;46.62;100586.88;10393223;28;20132;-61
2023/09/04 19:24:08;;;;;;;2.38;1.30;;;;;;;20.08;47.03;100586.88;10395120;28;20558;-61
2023/09/04 19:29:13;;;;;;;2.40;1.40;;;;;;;19.96;47.16;100587.97;10395131;28;20053;-61
2023/09/04 19:34:15;;;;;;;3.47;1.48;;;;;;;19.80;47.34;100595.56;10392322;28;20041;-61
2023/09/04 19:39:18;;;;;;;2.70;1.50;;;;;;;19.67;48.03;100593.13;10392058;28;20332;-59
2023/09/04 19:44:20;;;;;;;3.15;1.60;;;;;;;19.54;48.32;100589.88;10390855;28;20061;-61
2023/09/04 19:49:22;;;;;;;3.42;1.77;;;;;;;19.41;49.03;100578.63;10393623;28;20057;-61
2023/09/04 19:54:24;;;;;;;20.83;7.88;;;;;;;19.18;49.97;100596.50;10397517;28;20094;-61
2023/09/04 19:59:26;;;;;;;70.07;26.42;;;;;;;19.14;49.97;100596.91;10395826;28;20053;-61
2023/09/04 20:04:28;;;;;;;28.27;12.48;;;;;;;19.09;50.07;100591.16;10392905;28;20040;-61
2023/09/04 20:09:30;;;;;;;16.33;8.05;;;;;;;19.04;50.32;100594.19;10392320;28;20046;-61
2023/09/04 20:14:32;;;;;;;16.70;7.15;;;;;;;18.97;50.75;100595.63;10403232;28;20075;-61
2023/09/04 20:19:34;;;;;;;14.75;7.15;;;;;;;18.89;51.00;100592.78;10407421;28;20045;-61
2023/09/04 20:24:36;;;;;;;11.32;5.15;;;;;;;18.78;50.85;100603.44;10419282;28;20067;-61
2023/09/04 20:29:38;;;;;;;8.38;3.25;;;;;;;18.74;50.77;100602.03;10394480;28;20056;-61
2023/09/04 20:34:40;;;;;;;6.47;3.35;;;;;;;18.67;51.57;100597.38;10396100;28;20494;-61
2023/09/04 20:39:45;;;;;;;4.60;2.10;;;;;;;18.54;52.05;100601.00;10406403;28;20525;-61
2023/09/04 20:44:47;;;;;;;4.85;1.90;;;;;;;18.31;52.01;100598.56;10399603;28;20385;-61
2023/09/04 20:49:49;;;;;;;8.68;2.67;;;;;;;18.03;51.94;100591.13;10411926;28;20531;-61
2023/09/04 20:54:51;;;;;;;5.57;2.20;;;;;;;17.90;52.63;100598.34;10401723;28;20505;-61
2023/09/04 20:59:53;;;;;;;3.45;1.65;;;;;;;17.97;52.73;100589.84;10393639;28;20645;-61
2023/09/04 21:04:55;;;;;;;3.60;1.88;;;;;;;18.02;52.79;100594.72;10399850;28;20050;-61
2023/09/04 23:23:17;;;;;;;;;;;;;;;15.90;60.08;100575.72;10386843;28;20097;-61
2023/09/04 23:28:22;;;;;;;6.30;1.85;;;;;;;15.99;59.16;100575.09;10385575;28;19991;-61
2023/09/04 23:33:36;;;;;;;5.03;2.00;;;;;;;15.86;59.15;100580.41;10389293;28;20052;-61
2023/09/04 23:49:37;;;;;;;;;;;;;;;15.53;60.76;100568.75;10385765;28;20220;-60
2023/09/04 23:54:39;;;;;;;7.97;4.25;;;;;;;15.56;60.35;100568.53;10385544;28;19927;-59
2023/09/04 23:59:41;;;;;;;13.35;5.70;;;;;;;15.49;60.49;100565.47;10422121;28;20042;-59
